Time;durP1;ratioP1;P1;durP2;ratioP2;P2;SDS_P1;SDS_P2;PMS_P1;PMS_P2;Temp;Humidity;BMP_temperature;BMP_pressure;BME280_temperature;BME280_humidity;BME280_pressure;Samples;Min_cycle;Max_cycle;Signal;HPM_P1;HPM_P2
2023/03/20 00:00:23;;;;;;;9.60;3.20;;;;;;;7.70;46.40;99615.88;4967206;27;20097;-61
2023/03/20 00:02:54;;;;;;;10.10;4.00;;;;;;;8.03;46.54;99645.69;4956666;27;20043;-60
2023/03/20 00:05:27;;;;;;;10.90;4.22;;;;;;;8.19;46.43;99636.78;4967978;27;20043;-60
2023/03/20 00:07:57;;;;;;;10.80;3.90;;;;;;;8.27;46.10;99621.03;4967373;27;20080;-61
2023/03/20 00:10:36;;;;;;;14.23;3.72;;;;;;;8.62;46.00;99651.69;4957368;27;20047;-61
2023/03/20 00:13:14;;;;;;;11.68;3.60;;;;;;;8.58;45.65;99644.78;4955012;27;20847;-61
2023/03/20 00:15:45;;;;;;;12.60;3.67;;;;;;;8.87;44.05;99656.44;4956848;27;20051;-61
2023/03/20 01:43:01;;;;;;;8.05;2.72;;;;;;;11.74;36.64;99677.22;4919090;28;20048;-61
2023/03/20 01:45:36;;;;;;;10.52;3.60;;;;;;;11.79;36.43;99680.56;4926634;28;20688;-61
2023/03/20 01:48:17;;;;;;;8.75;3.03;;;;;;;11.87;36.99;99678.59;4939578;28;20127;-60
2023/03/20 01:50:47;;;;;;;8.93;3.28;;;;;;;11.94;37.43;99667.03;4933153;28;20059;-60
2023/03/20 01:53:23;;;;;;;9.43;3.10;;;;;;;11.94;36.86;99680.13;4949431;27;20069;-61
2023/03/20 01:55:58;;;;;;;6.57;2.63;;;;;;;11.94;35.87;99674.03;4939278;27;20108;-62
2023/03/20 01:58:39;;;;;;;6.38;2.90;;;;;;;11.80;36.69;99671.78;4950239;28;20082;-61
2023/03/20 02:01:13;;;;;;;8.23;2.97;;;;;;;11.50;36.40;99645.66;4939465;27;20047;-61
2023/03/20 02:03:47;;;;;;;9.63;3.22;;;;;;;11.72;36.12;99645.00;4940035;28;20055;-61
2023/03/20 02:06:21;;;;;;;6.65;2.72;;;;;;;12.04;36.10;99681.53;4949523;27;20051;-62
2023/03/20 02:08:53;;;;;;;9.43;2.80;;;;;;;12.29;35.20;99691.22;4947524;28;20162;-60
2023/03/20 02:11:25;;;;;;;8.05;3.28;;;;;;;12.45;35.57;99694.19;4948424;27;20425;-60
2023/03/20 02:14:01;;;;;;;5.65;2.60;;;;;;;12.69;35.05;99696.00;4949505;28;20401;-60
2023/03/20 02:16:31;;;;;;;12.27;3.30;;;;;;;12.65;33.83;99672.56;4945482;27;20088;-61
2023/03/20 02:19:03;;;;;;;7.50;2.50;;;;;;;12.83;33.69;99698.16;4953505;27;20052;-61
2023/03/20 02:22:03;;;;;;;8.88;2.85;;;;;;;12.88;33.97;99696.22;4948767;27;20052;-59
2023/03/20 02:25:04;;;;;;;11.93;3.20;;;;;;;12.81;33.76;99705.22;4927407;27;20066;-60
2023/03/20 02:27:39;;;;;;;7.75;2.88;;;;;;;12.63;34.28;99669.13;4927716;27;20058;-61
2023/03/20 02:30:50;;;;;;;9.73;3.22;;;;;;;12.68;34.70;99709.16;4948870;28;20081;-59
2023/03/20 02:33:49;;;;;;;9.65;2.90;;;;;;;12.59;34.65;99714.72;4938337;28;20067;-59
2023/03/20 02:36:50;;;;;;;7.00;2.72;;;;;;;12.69;34.90;99705.63;4938585;28;20120;-61
2023/03/20 02:39:43;;;;;;;7.68;3.15;;;;;;;12.67;34.65;99686.47;4949004;28;20053;-59
2023/03/20 02:42:21;;;;;;;6.25;2.10;;;;;;;12.62;34.74;99704.97;4942632;27;20050;-60
2023/03/20 02:45:03;;;;;;;8.25;3.05;;;;;;;12.47;34.43;99708.09;4959427;27;20049;-60
2023/03/20 02:47:42;;;;;;;10.30;3.22;;;;;;;12.42;35.49;99700.41;4954022;27;20758;-60
2023/03/20 02:50:19;;;;;;;6.43;2.38;;;;;;;12.33;34.75;99656.19;4955154;27;20090;-60
2023/03/20 02:52:58;;;;;;;5.78;2.60;;;;;;;12.67;34.80;99696.97;4964451;27;20051;-61
2023/03/20 02:55:40;;;;;;;5.82;2.65;;;;;;;12.86;34.81;99708.53;4940198;27;20066;-61
2023/03/20 02:58:16;;;;;;;8.48;2.92;;;;;;;13.16;33.40;99711.84;4938541;28;20441;-61
2023/03/20 03:00:51;;;;;;;7.13;2.85;;;;;;;13.24;32.46;99695.81;4938036;28;20051;-61
2023/03/20 03:03:27;;;;;;;4.75;2.03;;;;;;;13.46;32.08;99713.44;4946632;28;20455;-61
2023/03/20 03:06:02;;;;;;;8.55;2.30;;;;;;;13.55;32.17;99715.72;4948782;27;20047;-59
2023/03/20 03:08:38;;;;;;;7.47;2.63;;;;;;;13.65;32.88;99714.44;4935856;28;21186;-61
2023/03/20 03:11:11;;;;;;;8.38;2.55;;;;;;;13.72;33.01;99710.69;4947034;28;20065;-60
2023/03/20 03:13:46;;;;;;;6.70;2.60;;;;;;;13.67;32.43;99717.03;4943514;28;20887;-60
2023/03/20 03:16:22;;;;;;;10.40;2.72;;;;;;;13.59;31.88;99722.56;4948214;28;20043;-61
2023/03/20 03:19:06;;;;;;;7.45;2.58;;;;;;;13.58;31.69;99728.75;4940125;28;20555;-60
2023/03/20 03:21:40;;;;;;;7.00;2.22;;;;;;;13.45;30.83;99712.56;4937147;28;20101;-60
2023/03/20 03:24:26;;;;;;;9.20;2.30;;;;;;;12.79;30.04;99714.91;4947426;28;20059;-60
2023/03/20 03:27:17;;;;;;;9.65;2.53;;;;;;;12.21;29.89;99722.06;4946910;28;20063;-61
2023/03/20 03:29:54;;;;;;;8.05;2.50;;;;;;;11.76;30.45;99699.84;4937118;28;20570;-62
2023/03/20 03:32:30;;;;;;;6.10;2.20;;;;;;;11.75;30.90;99720.81;4934882;28;20043;-61
2023/03/20 03:35:03;;;;;;;3.70;2.25;;;;;;;11.35;31.22;99680.97;4944943;28;20078;-60
2023/03/20 03:37:50;;;;;;;5.43;2.15;;;;;;;11.36;32.21;99723.69;4934371;28;20210;-60
2023/03/20 03:40:32;;;;;;;13.43;3.30;;;;;;;11.23;32.72;99718.81;4952627;27;20514;-61
2023/03/20 03:43:09;;;;;;;7.30;2.00;;;;;;;11.18;33.15;99720.69;4954728;27;20462;-61
2023/03/20 03:45:45;;;;;;;8.25;2.20;;;;;;;11.26;32.79;99714.38;4963722;27;20070;-61
2023/03/20 03:48:20;;;;;;;5.88;1.75;;;;;;;11.25;31.73;99721.38;4953173;28;20071;-61
2023/03/20 03:50:54;;;;;;;7.47;2.45;;;;;;;11.18;32.47;99719.81;4964100;28;20104;-61
2023/03/20 03:53:31;;;;;;;5.50;2.25;;;;;;;10.74;31.99;99652.16;4950327;28;20059;-62
2023/03/20 03:56:05;;;;;;;9.30;2.40;;;;;;;11.11;32.55;99713.91;4932775;28;20118;-61
2023/03/20 03:58:40;;;;;;;7.25;2.40;;;;;;;11.15;32.85;99715.53;4944618;28;20051;-61
2023/03/20 04:01:13;;;;;;;6.40;2.10;;;;;;;11.19;32.25;99717.16;4945016;28;20382;-61
2023/03/20 04:03:49;;;;;;;6.90;2.28;;;;;;;11.04;32.48;99722.81;4947538;28;20058;-62
2023/03/20 04:06:21;;;;;;;5.15;2.00;;;;;;;10.99;32.19;99722.09;4967059;28;20123;-61
2023/03/20 04:08:51;;;;;;;5.78;1.90;;;;;;;11.05;33.10;99724.53;4964578;28;20423;-61
2023/03/20 04:11:23;;;;;;;9.48;2.70;;;;;;;11.17;34.24;99718.97;4971013;28;20442;-61
2023/03/20 04:13:56;;;;;;;6.90;2.28;;;;;;;11.39;33.64;99723.59;4963733;28;20043;-62
2023/03/20 04:16:26;;;;;;;9.13;2.70;;;;;;;11.45;32.48;99723.41;4964232;28;20104;-61
2023/03/20 04:18:57;;;;;;;5.13;2.28;;;;;;;11.41;33.07;99732.28;4963931;28;20528;-61
2023/03/20 04:21:27;;;;;;;6.63;2.67;;;;;;;11.49;33.65;99738.13;4963953;28;20596;-61
2023/03/20 04:23:58;;;;;;;4.05;2.00;;;;;;;11.53;32.38;99731.94;4964551;28;20051;-62
2023/03/20 04:26:29;;;;;;;6.40;2.03;;;;;;;11.51;31.64;99738.97;4963923;28;20422;-61
2023/03/20 04:29:01;;;;;;;7.72;2.28;;;;;;;11.58;32.21;99740.50;4963539;28;20050;-62
2023/03/20 04:31:32;;;;;;;7.38;2.65;;;;;;;11.72;33.85;99741.84;4957412;28;20764;-61
2023/03/20 04:34:03;;;;;;;5.80;2.20;;;;;;;11.80;33.35;99740.69;4949687;28;20049;-62
2023/03/20 04:36:33;;;;;;;6.28;2.28;;;;;;;11.92;34.14;99744.75;4947488;28;20148;-62
2023/03/20 04:39:04;;;;;;;4.60;2.20;;;;;;;12.05;32.89;99751.31;4946342;28;20057;-62
2023/03/20 04:41:34;;;;;;;5.85;2.03;;;;;;;12.21;35.35;99753.50;4945629;28;20055;-62
2023/03/20 04:44:06;;;;;;;5.55;2.10;;;;;;;12.31;35.08;99754.91;4948863;28;20047;-62
2023/03/20 04:46:37;;;;;;;5.43;2.10;;;;;;;12.30;33.22;99753.19;4951786;27;20047;-62
2023/03/20 04:49:07;;;;;;;7.25;2.47;;;;;;;12.29;33.29;99754.97;4952168;28;20131;-62
2023/03/20 04:51:38;;;;;;;7.55;1.70;;;;;;;12.16;35.30;99722.22;4951777;27;20420;-61
2023/03/20 04:54:08;;;;;;;13.20;2.20;;;;;;;12.29;34.71;99764.59;4951101;28;20541;-62
2023/03/20 04:56:39;;;;;;;4.63;2.30;;;;;;;12.30;34.55;99761.94;4950981;28;20047;-62
2023/03/20 04:59:11;;;;;;;5.20;1.92;;;;;;;12.25;34.00;99758.56;4955810;27;20050;-62
2023/03/20 05:01:42;;;;;;;12.02;2.05;;;;;;;12.30;34.09;99766.28;4962856;27;20570;-62
2023/03/20 05:04:12;;;;;;;4.80;2.10;;;;;;;12.29;34.23;99761.97;4970886;27;20417;-62
2023/03/20 05:06:47;;;;;;;4.10;1.92;;;;;;;12.11;32.16;99766.00;4966906;27;20120;-61
2023/03/20 05:09:17;;;;;;;4.13;2.13;;;;;;;11.88;34.35;99766.69;4965851;27;20092;-62
2023/03/20 05:11:48;;;;;;;4.50;1.90;;;;;;;11.98;33.95;99791.72;4947022;28;20100;-62
2023/03/20 05:14:20;;;;;;;6.65;2.40;;;;;;;12.06;34.38;99781.88;4946913;28;20051;-62
2023/03/20 05:16:51;;;;;;;12.30;2.30;;;;;;;12.09;35.46;99784.38;4946927;28;20053;-61
2023/03/20 05:19:21;;;;;;;7.03;2.33;;;;;;;12.23;36.05;99797.06;4943850;28;20479;-61
2023/03/20 05:21:52;;;;;;;4.78;2.10;;;;;;;12.16;33.64;99792.06;4939363;28;20868;-62
2023/03/20 05:24:22;;;;;;;6.65;2.00;;;;;;;12.14;33.88;99796.50;4948780;28;20061;-61
2023/03/20 05:26:53;;;;;;;5.30;2.10;;;;;;;12.29;34.94;99806.50;4946858;28;20054;-62
2023/03/20 05:29:25;;;;;;;5.15;2.10;;;;;;;12.34;35.01;99809.84;4950006;27;20130;-62
2023/03/20 05:31:55;;;;;;;5.15;2.10;;;;;;;12.39;35.67;99807.06;4951902;27;20052;-61
2023/03/20 05:34:26;;;;;;;4.20;2.00;;;;;;;12.40;34.14;99814.88;4951712;27;20059;-61
2023/03/20 05:36:57;;;;;;;4.20;1.75;;;;;;;12.37;34.68;99804.50;4948683;28;20042;-62
2023/03/20 05:39:33;;;;;;;6.32;1.77;;;;;;;12.48;35.57;99799.78;4950331;27;20071;-61
2023/03/20 05:42:04;;;;;;;4.18;1.95;;;;;;;12.46;32.90;99809.47;4935277;27;20124;-62
2023/03/20 05:44:36;;;;;;;4.88;1.98;;;;;;;12.50;35.97;99811.09;4949177;27;20058;-62
2023/03/20 05:47:06;;;;;;;5.40;2.03;;;;;;;12.55;34.37;99807.44;4946297;27;20067;-61
2023/03/20 05:49:37;;;;;;;7.20;1.90;;;;;;;12.46;35.91;99809.47;4947913;27;20478;-62
2023/03/20 05:52:07;;;;;;;5.97;1.92;;;;;;;12.40;35.05;99814.88;4948072;27;20514;-62
2023/03/20 05:54:38;;;;;;;6.50;2.28;;;;;;;12.30;35.16;99823.91;4947843;27;20055;-61
2023/03/20 05:57:08;;;;;;;5.93;2.10;;;;;;;12.23;36.17;99827.63;4945391;27;20488;-62
2023/03/20 05:59:40;;;;;;;3.15;1.85;;;;;;;12.22;34.25;99832.00;4946687;27;20487;-61
2023/03/20 06:02:11;;;;;;;4.32;2.08;;;;;;;12.16;34.74;99826.13;4947125;27;20104;-62
2023/03/20 06:04:41;;;;;;;6.32;2.20;;;;;;;12.07;33.22;99828.09;4944548;27;20048;-61
2023/03/20 06:07:12;;;;;;;4.32;1.77;;;;;;;11.82;33.58;99832.28;4951440;27;20053;-62
2023/03/20 06:09:43;;;;;;;8.23;2.40;;;;;;;11.64;34.42;99836.28;4946451;27;20759;-62
2023/03/20 06:12:13;;;;;;;6.50;2.42;;;;;;;11.61;33.94;99834.63;4946887;27;20047;-62
2023/03/20 06:14:45;;;;;;;4.47;1.92;;;;;;;11.58;35.69;99846.91;4945684;27;20485;-61
2023/03/20 06:17:15;;;;;;;6.03;1.67;;;;;;;11.53;35.04;99847.06;4944381;27;20051;-61
2023/03/20 06:19:46;;;;;;;2.78;1.55;;;;;;;11.41;34.72;99842.16;4946672;27;20066;-61
2023/03/20 06:22:16;;;;;;;4.72;1.90;;;;;;;11.29;34.89;99847.69;4948699;27;20718;-62
2023/03/20 06:24:47;;;;;;;8.18;2.40;;;;;;;11.29;36.09;99855.53;4946548;27;20109;-62
2023/03/20 06:27:18;;;;;;;5.03;2.88;;;;;;;11.26;35.76;99859.09;4946520;27;20600;-62
2023/03/20 06:29:50;;;;;;;4.50;2.10;;;;;;;11.23;36.48;99851.31;4945041;27;20047;-62
2023/03/20 06:32:20;;;;;;;3.75;1.98;;;;;;;10.88;36.62;99792.06;4945807;27;20488;-62
2023/03/20 06:34:51;;;;;;;8.50;2.35;;;;;;;11.10;36.23;99853.38;4944687;27;20047;-62
2023/03/20 06:37:21;;;;;;;5.68;2.10;;;;;;;11.11;37.13;99857.72;4943435;27;20063;-62
2023/03/20 06:39:52;;;;;;;4.10;2.03;;;;;;;11.01;35.86;99851.00;4949229;27;20045;-61
2023/03/20 06:42:22;;;;;;;4.82;1.85;;;;;;;10.97;35.67;99867.66;4946996;27;20056;-62
2023/03/20 06:44:55;;;;;;;4.93;2.25;;;;;;;10.97;36.09;99867.66;4945010;27;20218;-61
2023/03/20 06:47:25;;;;;;;3.15;1.80;;;;;;;10.95;37.43;99861.59;4946044;27;20249;-61
2023/03/20 06:49:56;;;;;;;8.73;2.50;;;;;;;11.00;37.11;99867.56;4945037;27;20054;-61
2023/03/20 06:52:30;;;;;;;5.22;1.92;;;;;;;10.78;37.40;99836.75;4943488;27;20067;-61
2023/03/20 06:55:07;;;;;;;4.78;3.75;;;;;;;10.98;38.52;99879.81;4936401;27;20076;-61
2023/03/20 06:57:38;;;;;;;4.53;1.95;;;;;;;10.91;37.55;99878.28;4946966;27;20058;-60
2023/03/20 07:00:20;;;;;;;4.93;2.22;;;;;;;10.89;38.89;99874.84;4944888;27;20039;-61
2023/03/20 07:02:50;;;;;;;5.50;1.88;;;;;;;10.76;38.06;99880.34;4933665;27;20066;-61
2023/03/20 07:05:21;;;;;;;4.75;1.90;;;;;;;10.67;37.33;99883.16;4944509;27;20147;-61
2023/03/20 07:07:52;;;;;;;5.55;1.90;;;;;;;10.55;37.51;99896.50;4951290;27;20199;-61
2023/03/20 07:10:23;;;;;;;5.90;2.08;;;;;;;10.45;38.11;99889.75;4945424;27;20371;-60
2023/03/20 07:12:53;;;;;;;6.30;2.20;;;;;;;10.42;39.20;99889.84;4945085;27;20059;-61
2023/03/20 07:15:26;;;;;;;5.05;1.90;;;;;;;10.34;38.37;99890.84;4945534;27;20051;-61
2023/03/20 07:17:56;;;;;;;4.07;2.00;;;;;;;10.29;38.71;99895.31;4945604;27;20058;-61
2023/03/20 07:20:27;;;;;;;5.63;1.90;;;;;;;10.25;37.98;99909.28;4944911;27;20063;-62
2023/03/20 07:22:58;;;;;;;5.22;1.90;;;;;;;10.11;39.09;99880.88;4945887;27;20063;-61
2023/03/20 07:25:29;;;;;;;7.75;2.25;;;;;;;10.24;40.32;99922.41;4944458;27;20081;-61
2023/03/20 07:28:11;;;;;;;9.52;5.03;;;;;;;10.13;39.78;99918.25;4935140;28;20064;-62
2023/03/20 07:30:43;;;;;;;15.20;7.13;;;;;;;10.16;40.52;99925.16;4975099;27;20953;-61
2023/03/20 07:33:14;;;;;;;17.98;9.35;;;;;;;10.10;40.60;99933.09;4946163;28;20749;-60
2023/03/20 07:35:44;;;;;;;32.75;17.25;;;;;;;10.08;40.72;99924.44;4947055;28;20055;-60
2023/03/20 07:38:15;;;;;;;11.23;4.50;;;;;;;10.00;41.23;99931.56;4947045;28;20084;-60
2023/03/20 07:40:47;;;;;;;7.85;3.05;;;;;;;9.94;43.29;99929.94;4943884;28;20059;-60
2023/03/20 07:43:18;;;;;;;15.82;4.15;;;;;;;9.57;41.96;99894.09;4946538;27;20040;-60
2023/03/20 07:45:50;;;;;;;6.93;3.30;;;;;;;9.68;40.08;99933.91;4955821;27;20130;-60
2023/03/20 07:48:21;;;;;;;10.07;2.90;;;;;;;9.61;41.18;99937.50;4973396;27;20056;-60
2023/03/20 07:50:51;;;;;;;7.75;2.95;;;;;;;9.42;42.58;99921.28;4941650;28;20109;-61
2023/03/20 07:53:22;;;;;;;6.13;2.42;;;;;;;9.58;42.31;99941.91;4950795;28;20065;-61
2023/03/20 07:55:52;;;;;;;4.25;2.40;;;;;;;9.05;41.82;99877.59;4948202;28;20060;-61
2023/03/20 07:58:23;;;;;;;6.43;3.35;;;;;;;9.30;42.21;99952.78;4948666;28;20126;-61
2023/03/20 08:01:05;;;;;;;8.30;4.15;;;;;;;9.18;44.24;99950.38;4946071;28;20058;-61
2023/03/20 08:03:35;;;;;;;5.05;2.90;;;;;;;9.10;45.36;99950.50;4934152;28;20129;-61
2023/03/20 08:06:08;;;;;;;4.00;1.80;;;;;;;8.87;44.62;99963.88;4946059;28;20066;-60
2023/03/20 08:08:39;;;;;;;4.30;1.50;;;;;;;8.45;43.86;99965.31;4946819;28;20940;-60
2023/03/20 08:11:09;;;;;;;3.83;1.80;;;;;;;8.12;45.66;99963.03;4945009;28;20128;-60
2023/03/20 08:13:40;;;;;;;3.72;1.73;;;;;;;7.80;45.91;99965.13;4945415;28;20047;-59
2023/03/20 08:16:26;;;;;;;4.20;2.20;;;;;;;7.52;46.50;99965.38;4946333;28;20044;-60
2023/03/20 08:19:00;;;;;;;7.53;2.08;;;;;;;7.10;47.58;99972.63;4946366;27;20059;-59
2023/03/20 08:21:31;;;;;;;6.05;1.70;;;;;;;6.73;48.64;99965.06;4948610;27;20052;-60
2023/03/20 08:24:29;;;;;;;235.48;114.93;;;;;;;6.29;50.38;99981.72;4946197;27;20098;-60
2023/03/20 08:27:06;;;;;;;27.38;14.68;;;;;;;5.93;51.43;99988.69;4934376;27;20320;-60
2023/03/20 08:29:40;;;;;;;3.47;2.30;;;;;;;5.61;51.76;99986.97;4936762;27;20055;-59
2023/03/20 08:32:14;;;;;;;10.80;5.03;;;;;;;5.30;52.26;99985.28;4946591;27;20227;-58
2023/03/20 08:34:46;;;;;;;49.90;23.48;;;;;;;4.83;54.80;99983.47;4949736;27;20474;-59
2023/03/20 08:37:18;;;;;;;12.88;7.60;;;;;;;4.40;56.35;99989.38;4966064;27;20061;-59
2023/03/20 08:39:50;;;;;;;6.53;2.67;;;;;;;4.05;57.27;99991.78;4958502;27;20039;-59
2023/03/20 08:42:22;;;;;;;3.10;1.75;;;;;;;3.81;57.43;99998.50;4945878;27;20161;-58
2023/03/20 08:44:53;;;;;;;3.65;1.88;;;;;;;3.59;57.74;99999.22;4949294;27;20121;-59
2023/03/20 08:47:27;;;;;;;3.95;1.98;;;;;;;3.43;58.16;100004.25;4969705;27;20056;-57
2023/03/20 08:49:59;;;;;;;4.88;2.13;;;;;;;3.25;58.62;100001.53;4968261;28;20044;-58
2023/03/20 08:52:30;;;;;;;5.82;2.13;;;;;;;3.07;59.27;100002.22;4950292;27;20116;-58
2023/03/20 08:55:02;;;;;;;5.35;1.77;;;;;;;2.80;59.88;99990.75;4959271;27;20116;-57
2023/03/20 08:57:34;;;;;;;4.63;2.30;;;;;;;2.70;59.96;99995.81;4966865;27;20349;-58
2023/03/20 09:00:08;;;;;;;5.90;2.20;;;;;;;2.65;59.80;100000.06;4948820;27;20098;-57
2023/03/20 09:02:42;;;;;;;2.13;1.55;;;;;;;2.64;59.80;100006.06;4948620;27;20124;-58
2023/03/20 09:05:13;;;;;;;2.92;1.70;;;;;;;2.57;59.95;100002.53;4939014;27;20056;-58
2023/03/20 09:07:45;;;;;;;2.80;1.70;;;;;;;2.43;60.13;100010.09;4949072;27;20055;-58
2023/03/20 09:10:17;;;;;;;5.10;1.75;;;;;;;2.40;60.46;100006.59;4949714;27;20035;-57
2023/03/20 09:12:50;;;;;;;4.03;1.75;;;;;;;2.35;60.68;100019.47;4930397;28;20498;-57
2023/03/20 09:15:21;;;;;;;4.10;2.00;;;;;;;2.04;60.29;99972.63;4945027;27;20076;-58
2023/03/20 09:17:55;;;;;;;3.75;2.20;;;;;;;2.26;60.66;100024.50;4941029;27;20069;-58
2023/03/20 09:20:27;;;;;;;3.22;2.28;;;;;;;2.23;60.84;100019.31;4992382;27;20047;-56
2023/03/20 09:23:20;;;;;;;4.72;2.10;;;;;;;1.90;60.74;99974.19;4954722;28;20172;-56
2023/03/20 09:25:52;;;;;;;4.10;1.90;;;;;;;2.14;60.88;100025.19;4945195;27;20087;-58
2023/03/20 09:28:23;;;;;;;4.88;2.20;;;;;;;1.90;60.80;99999.97;4949664;27;20048;-58
2023/03/20 09:30:57;;;;;;;7.70;1.95;;;;;;;2.07;60.42;100034.56;4947916;27;20051;-58
2023/03/20 09:33:31;;;;;;;5.97;2.10;;;;;;;2.01;60.68;100034.47;4948654;27;20482;-57
2023/03/20 09:36:02;;;;;;;3.75;1.95;;;;;;;1.80;60.10;99998.94;4943357;27;20470;-58
2023/03/20 09:38:34;;;;;;;5.15;2.42;;;;;;;2.04;60.01;100039.66;4948068;27;20061;-57
2023/03/20 09:41:08;;;;;;;7.00;2.10;;;;;;;2.09;60.50;100053.47;4947896;27;20055;-57
2023/03/20 09:44:05;;;;;;;3.97;1.83;;;;;;;2.04;60.37;100044.81;4965345;27;20071;-56
2023/03/20 09:47:07;;;;;;;4.18;2.03;;;;;;;2.09;60.45;100061.19;4951604;27;20043;-57
2023/03/20 09:50:04;;;;;;;2.55;1.88;;;;;;;1.96;60.77;100056.72;4936502;27;20063;-58
2023/03/20 09:52:41;;;;;;;6.47;2.78;;;;;;;2.20;62.51;100070.78;4935580;27;20075;-58
2023/03/20 09:55:16;;;;;;;8.43;5.15;;;;;;;2.37;62.96;100074.47;4943607;27;20045;-57
2023/03/20 09:57:52;;;;;;;6.25;2.67;;;;;;;2.22;63.83;100074.28;4948020;27;20549;-57
2023/03/20 10:00:28;;;;;;;6.13;2.65;;;;;;;2.12;63.73;100088.72;4936184;28;20058;-58
2023/03/20 10:03:03;;;;;;;5.38;2.80;;;;;;;1.88;63.98;100078.94;4949293;27;20062;-56
2023/03/20 10:05:42;;;;;;;3.83;2.28;;;;;;;1.41;64.63;100022.34;4956927;27;20827;-58
2023/03/20 10:08:16;;;;;;;7.28;2.50;;;;;;;1.68;65.36;100097.50;4937105;27;20101;-58
2023/03/20 10:10:53;;;;;;;3.95;2.95;;;;;;;1.62;66.23;100099.97;4947384;27;20051;-58
2023/03/20 10:13:51;;;;;;;4.47;2.60;;;;;;;1.54;66.11;100106.69;4938466;27;20095;-58
2023/03/20 10:16:36;;;;;;;11.40;5.85;;;;;;;1.44;66.58;100120.25;4933870;27;20052;-58
2023/03/20 10:19:16;;;;;;;14.27;6.57;;;;;;;1.15;66.49;100074.25;4937256;27;20096;-58
2023/03/20 10:21:54;;;;;;;26.23;11.57;;;;;;;1.18;66.38;100102.63;4937582;27;20390;-58
2023/03/20 10:24:30;;;;;;;20.45;8.63;;;;;;;0.74;67.54;100025.44;4936975;27;20070;-57
2023/03/20 10:27:11;;;;;;;6.93;2.97;;;;;;;1.32;67.08;100112.28;4945353;27;20064;-58
2023/03/20 10:29:51;;;;;;;10.32;4.82;;;;;;;1.16;66.95;100117.16;4942260;27;20109;-58
2023/03/20 10:32:30;;;;;;;6.75;3.95;;;;;;;1.25;67.92;100117.34;4940054;27;20048;-58
2023/03/20 10:35:44;;;;;;;5.68;2.97;;;;;;;1.26;67.39;100119.06;4957564;28;20112;-57
2023/03/20 10:38:27;;;;;;;5.38;2.50;;;;;;;1.20;67.13;100124.09;4934153;27;20093;-58
2023/03/20 10:41:00;;;;;;;4.95;2.13;;;;;;;0.68;66.64;100071.63;4925593;27;20090;-58
2023/03/20 10:43:36;;;;;;;5.32;2.70;;;;;;;1.03;66.40;100140.91;4914718;28;20057;-58
2023/03/20 10:46:14;;;;;;;20.30;9.65;;;;;;;0.77;67.36;100138.66;4918139;28;20051;-58
2023/03/20 10:48:49;;;;;;;8.05;3.50;;;;;;;0.60;68.21;100140.00;4907862;28;20055;-58
2023/03/20 10:51:26;;;;;;;8.05;2.85;;;;;;;0.62;67.82;100148.63;4917012;28;20048;-58
2023/03/20 10:54:02;;;;;;;35.88;13.23;;;;;;;0.05;67.55;100061.66;4907491;28;20086;-60
2023/03/20 10:56:39;;;;;;;28.00;12.88;;;;;;;0.79;68.23;100152.41;4907106;28;20076;-57
2023/03/20 10:59:21;;;;;;;28.27;11.93;;;;;;;0.78;67.21;100150.69;4920471;28;20049;-57
2023/03/20 11:01:54;;;;;;;14.15;6.18;;;;;;;0.74;66.54;100159.16;4912826;28;20063;-58
2023/03/20 11:04:26;;;;;;;6.15;3.47;;;;;;;0.72;66.16;100165.97;4917437;28;20044;-58
2023/03/20 11:07:05;;;;;;;4.78;2.55;;;;;;;0.53;65.96;100125.28;4917046;28;20068;-60
2023/03/20 11:09:39;;;;;;;5.45;2.40;;;;;;;0.42;66.36;100107.94;4907491;28;20058;-57
2023/03/20 11:12:18;;;;;;;7.97;3.03;;;;;;;0.95;67.03;100178.47;4916915;28;20273;-58
2023/03/20 11:14:50;;;;;;;8.57;3.92;;;;;;;1.00;66.74;100176.84;4906875;28;20048;-58
2023/03/20 11:17:23;;;;;;;9.38;4.40;;;;;;;0.95;66.33;100178.47;4915918;28;20090;-58
2023/03/20 11:20:03;;;;;;;17.33;6.72;;;;;;;0.81;66.30;100171.34;4916163;28;20078;-58
2023/03/20 11:22:35;;;;;;;44.95;15.52;;;;;;;0.73;66.21;100182.31;4906984;28;20349;-59
2023/03/20 11:25:23;;;;;;;41.22;13.40;;;;;;;0.56;66.96;100179.34;4916980;28;20052;-58
2023/03/20 11:27:57;;;;;;;21.70;8.32;;;;;;;0.52;67.46;100188.69;4906527;28;20048;-58
2023/03/20 11:30:52;;;;;;;13.30;5.03;;;;;;;0.56;68.91;100187.06;4922408;28;20101;-57
2023/03/20 11:33:38;;;;;;;4.88;2.30;;;;;;;0.40;68.42;100189.28;4902927;28;20104;-58
2023/03/20 11:36:21;;;;;;;7.93;2.92;;;;;;;0.38;68.89;100178.09;4942163;28;20052;-58
2023/03/20 11:39:03;;;;;;;7.82;3.47;;;;;;;0.40;68.05;100191.84;4905341;28;20055;-58
2023/03/20 11:41:43;;;;;;;6.78;3.33;;;;;;;0.32;69.18;100170.22;4906683;28;20931;-58
2023/03/20 11:44:29;;;;;;;4.97;2.60;;;;;;;0.47;68.78;100204.84;4906467;28;20174;-58
2023/03/20 11:47:03;;;;;;;4.82;2.75;;;;;;;-0.21;69.27;100121.00;4906580;28;20069;-58
2023/03/20 11:49:46;;;;;;;6.35;2.65;;;;;;;0.31;68.82;100214.75;4906728;28;20055;-58
2023/03/20 11:52:23;;;;;;;5.38;3.10;;;;;;;-0.25;68.57;100144.84;4906204;28;20046;-58
2023/03/20 11:54:58;;;;;;;4.88;2.92;;;;;;;0.09;68.48;100233.03;4905372;28;20075;-58
2023/03/20 11:57:37;;;;;;;8.77;3.53;;;;;;;-0.04;68.82;100208.75;4916652;28;20418;-58
2023/03/20 12:00:20;;;;;;;16.80;4.25;;;;;;;-0.02;69.32;100220.81;4905595;28;20050;-58
2023/03/20 12:02:52;;;;;;;8.20;3.80;;;;;;;-0.10;70.11;100206.91;4904561;28;20085;-58
2023/03/20 12:05:38;;;;;;;17.80;6.20;;;;;;;0.27;71.26;100236.06;4915908;28;20048;-57
2023/03/20 12:08:17;;;;;;;11.77;5.38;;;;;;;0.54;71.42;100235.00;4906153;28;20057;-58
2023/03/20 12:10:55;;;;;;;12.52;5.53;;;;;;;0.48;70.45;100186.88;4905516;28;20772;-59
2023/03/20 12:13:34;;;;;;;10.80;5.30;;;;;;;0.47;70.47;100173.97;4905809;28;20051;-58
2023/03/20 12:16:12;;;;;;;17.65;7.30;;;;;;;0.98;69.44;100230.00;4905550;28;20121;-58
2023/03/20 12:19:02;;;;;;;22.35;8.77;;;;;;;1.06;69.21;100238.75;4917896;28;20093;-57
2023/03/20 12:21:43;;;;;;;25.15;10.65;;;;;;;1.07;69.30;100240.47;4918965;28;20443;-58
2023/03/20 12:24:28;;;;;;;32.45;12.60;;;;;;;1.05;69.30;100231.88;4927994;28;20061;-57
2023/03/20 12:27:22;;;;;;;29.38;13.23;;;;;;;1.07;70.00;100266.22;4907143;28;20062;-58
2023/03/20 12:33:40;;;;;;;33.75;12.50;;;;;;;0.99;69.58;100252.31;4913275;28;20166;-58
2023/03/20 12:36:25;;;;;;;65.32;31.40;;;;;;;0.71;68.54;100258.53;4905569;28;20117;-58
2023/03/20 12:39:02;;;;;;;62.72;32.05;;;;;;;0.44;67.97;100259.63;4909207;28;20146;-58
2023/03/20 12:41:41;;;;;;;18.45;11.27;;;;;;;0.17;68.53;100262.38;4907730;28;20060;-58
2023/03/20 12:44:31;;;;;;;20.83;9.77;;;;;;;0.09;69.31;100269.00;4910784;28;20049;-58
2023/03/20 12:47:23;;;;;;;27.70;14.20;;;;;;;0.03;69.63;100259.47;4909785;28;20053;-57
2023/03/20 12:50:00;;;;;;;21.67;6.85;;;;;;;0.18;69.91;100269.25;4904873;28;20051;-58
2023/03/20 12:52:44;;;;;;;11.20;6.20;;;;;;;0.15;69.66;100269.16;4914305;28;20341;-58
2023/03/20 12:55:35;;;;;;;14.45;7.82;;;;;;;0.06;69.30;100274.09;4908759;28;20131;-58
2023/03/20 12:58:20;;;;;;;12.93;6.60;;;;;;;-0.04;69.88;100280.66;4907535;28;20063;-58
2023/03/20 13:01:02;;;;;;;7.80;4.60;;;;;;;-0.11;70.11;100266.78;4905479;28;20061;-58
2023/03/20 13:04:04;;;;;;;24.98;9.00;;;;;;;0.01;70.14;100276.53;4909217;28;20456;-58
2023/03/20 13:06:45;;;;;;;19.70;8.70;;;;;;;0.07;70.67;100270.66;4885154;28;20048;-58
2023/03/20 13:09:58;;;;;;;17.60;7.03;;;;;;;-0.06;70.84;100264.34;4909588;28;20056;-58
2023/03/20 13:12:36;;;;;;;12.35;6.68;;;;;;;-0.25;70.96;100284.41;4876045;28;20048;-57
2023/03/20 13:15:18;;;;;;;12.20;7.13;;;;;;;-0.44;71.16;100275.31;4908502;28;20052;-58
2023/03/20 13:18:02;;;;;;;19.08;7.50;;;;;;;-0.56;71.20;100277.53;4909647;28;20417;-58
2023/03/20 13:20:38;;;;;;;11.35;4.93;;;;;;;-0.54;71.51;100286.16;4911077;28;20128;-57
2023/03/20 13:23:20;;;;;;;14.07;5.57;;;;;;;-0.80;71.93;100251.16;4913875;28;20581;-57
2023/03/20 13:26:07;;;;;;;13.55;6.35;;;;;;;-0.59;72.58;100287.72;4918651;28;20056;-56
2023/03/20 13:28:45;;;;;;;14.45;7.32;;;;;;;-0.52;73.34;100284.50;4908439;28;20056;-57
2023/03/20 13:31:25;;;;;;;16.55;7.10;;;;;;;-0.43;74.21;100289.88;4910456;28;20048;-57
2023/03/20 13:34:21;;;;;;;17.95;7.90;;;;;;;-0.41;73.65;100291.63;4907916;28;20496;-57
2023/03/20 13:37:10;;;;;;;23.45;9.20;;;;;;;-0.51;72.87;100283.66;4897670;28;20052;-57
2023/03/20 13:40:09;;;;;;;25.40;9.95;;;;;;;-0.57;72.98;100290.34;4902021;28;20048;-58
2023/03/20 13:42:56;;;;;;;23.33;10.80;;;;;;;-0.67;73.41;100286.63;4908285;28;20101;-57